Lloydminster Airport
CYLL : now visible

Airfield :











YOU CAN JOIN US ON...

 
LOGIN :

Register | Disclaimer

   EN    FR    IT 

 









Legend :    VFR   Marginal VFR   IFR   Intensive IFR   Very Intensive IFR
Visi :
Ceiling :
>= 8 km
>= 3000ft
5 to 8 km
1000 to 3000 ft
1500m to 5 km
500 to 1000 ft
800 to 1500m
200 to 500 ft
< 800m
< 200 ft
Symbols :   Thunderstorms  Fog  Heavy snow  Heavy precipitations  Wind > 20 kt






- Airport Elevation : 2193 ft
- IATA code : YLL


CYLL - Lloydminster

CURRENT METAR :
  • 120200Z 13011KT 8SM -SN DRSN OVC035 M18/M23 A3001 RMK SC8 SLP231

EXPIRED METARs :
  • 120100Z 13010KT 12SM -SN DRSN OVC040 M18/M23 A3001 RMK SC8 SLP233
  • 120000Z 12011KT 15SM -SN DRSN OVC045 M18/M23 A3002 RMK SC8 SLP235

TAF TAF CYLL
Valid from the 12 at 00:00 until the 12 at 12:00 UTC


112338Z 1200/1212 09010KT P6SM OVC040
TEMPO 1200/1204 4SM -SN OVC020
BECMG 1200/1202 13010KT
FM120400 13010KT 6SM -SN OVC015
TEMPO 1204/1212 11/2SM -SN OVC008 RMK NXT FCST BY 120600Z



MET'MAP, your aeronautical weather chart ! - Copyright ORBIFLY December 2007 - Disclaimer

ORBIFLY MET'MAP TEAM :

Programming & Development : Alexandra Zaïnal
Concept & original design : Baudouin d'Aumeries
Assistance for programming : Marc-Olivier Méhu
Technical & hardware support : Manuel Goepfert

Contact : metmap@orbifly.com




SOURCES & CREDITS :

   NOAA       Earth
Advisory